createdAt,value
2018-04-29T00:02:14.796Z,5.20
2018-04-29T00:04:43.099Z,5.23
2018-04-29T00:07:11.385Z,5.90
2018-04-29T00:09:38.893Z,5.90
2018-04-29T00:12:06.421Z,6.13
2018-04-29T00:14:33.925Z,5.77
2018-04-29T00:17:02.222Z,5.93
2018-04-29T00:19:29.822Z,6.00
2018-04-29T00:21:57.330Z,6.03
2018-04-29T00:24:24.902Z,6.70
2018-04-29T00:26:52.448Z,6.60
2018-04-29T00:29:19.997Z,6.87
2018-04-29T00:31:48.281Z,6.83
2018-04-29T00:34:16.633Z,7.20
2018-04-29T00:36:44.170Z,7.10
2018-04-29T00:39:11.719Z,7.20
2018-04-29T00:41:39.238Z,7.23
2018-04-29T00:44:06.765Z,7.50
2018-04-29T00:46:34.349Z,7.67
2018-04-29T00:49:02.618Z,8.20
2018-04-29T00:51:42.925Z,7.50
2018-04-29T00:54:10.433Z,7.20
2018-04-29T00:56:38.753Z,7.50
2018-04-29T00:59:06.355Z,7.83
2018-04-29T01:01:33.829Z,8.20
2018-04-29T01:04:02.159Z,7.80
2018-04-29T01:06:29.718Z,8.90
2018-04-29T01:08:57.275Z,8.43
2018-04-29T01:11:24.841Z,7.90
2018-04-29T01:13:52.370Z,8.80
2018-04-29T01:16:19.892Z,8.87
2018-04-29T01:18:47.440Z,8.37
2018-04-29T01:21:14.968Z,8.80
2018-04-29T01:23:42.504Z,8.30
2018-04-29T01:26:10.018Z,8.67
2018-04-29T01:28:37.572Z,8.50
2018-04-29T01:31:05.129Z,7.80
2018-04-29T01:33:32.669Z,8.20
2018-04-29T01:36:00.222Z,8.20
2018-04-29T01:38:27.731Z,7.90
2018-04-29T01:40:56.052Z,8.93
2018-04-29T01:43:23.589Z,8.03
2018-04-29T01:45:51.132Z,8.83
2018-04-29T01:48:19.405Z,8.90
2018-04-29T01:50:47.746Z,9.23
2018-04-29T01:53:15.297Z,8.43
2018-04-29T01:55:42.822Z,9.17
2018-04-29T01:58:10.341Z,9.47
2018-04-29T02:00:37.864Z,9.27
2018-04-29T02:03:05.404Z,9.33
2018-04-29T02:05:32.938Z,9.73
2018-04-29T02:08:01.271Z,9.80
2018-04-29T02:10:28.806Z,8.77
2018-04-29T02:12:56.357Z,8.87
2018-04-29T02:15:23.880Z,9.00
2018-04-29T02:17:51.416Z,9.30
2018-04-29T02:20:18.933Z,9.00
2018-04-29T02:22:46.455Z,8.93
2018-04-29T02:25:14.009Z,8.93
2018-04-29T02:27:41.552Z,8.53
2018-04-29T02:30:09.081Z,9.60
2018-04-29T02:32:36.677Z,9.73
2018-04-29T02:35:04.180Z,10.00
2018-04-29T02:37:31.688Z,9.80
2018-04-29T02:39:59.216Z,9.30
2018-04-29T02:42:26.739Z,10.07
2018-04-29T02:44:55.058Z,9.80
2018-04-29T02:47:22.585Z,8.83
2018-04-29T02:49:50.131Z,9.00
2018-04-29T02:52:18.397Z,8.80
2018-04-29T02:54:45.925Z,9.40
2018-04-29T02:57:13.437Z,10.03
2018-04-29T02:59:41.757Z,9.63
2018-04-29T03:02:09.295Z,9.30
2018-04-29T03:04:36.840Z,8.60
2018-04-29T03:07:05.137Z,10.00
2018-04-29T03:09:32.666Z,9.40
2018-04-29T03:12:00.982Z,10.03
2018-04-29T03:14:28.493Z,9.93
2018-04-29T03:16:56.798Z,10.80
2018-04-29T03:19:24.361Z,10.30
2018-04-29T03:21:51.900Z,11.33
2018-04-29T03:24:19.421Z,11.20
2018-04-29T03:26:46.950Z,11.40
2018-04-29T03:29:14.469Z,11.37
2018-04-29T03:31:42.786Z,12.63
2018-04-29T03:34:10.296Z,13.40
2018-04-29T03:36:38.594Z,14.30
2018-04-29T03:39:06.110Z,14.97
2018-04-29T03:41:33.621Z,13.93
2018-04-29T03:44:01.170Z,15.20
2018-04-29T03:46:28.729Z,15.20
2018-04-29T03:48:56.276Z,14.67
2018-04-29T03:51:24.592Z,13.63
2018-04-29T03:53:52.113Z,12.93
2018-04-29T03:56:20.415Z,13.60
2018-04-29T03:58:59.784Z,13.77
2018-04-29T04:04:25.833Z,13.90
2018-04-29T04:06:53.392Z,14.23
2018-04-29T04:09:20.916Z,14.17
2018-04-29T04:11:48.440Z,14.17
2018-04-29T04:14:16.769Z,13.87
2018-04-29T04:16:44.269Z,14.47
2018-04-29T04:19:11.827Z,14.00
2018-04-29T04:21:39.389Z,13.70
2018-04-29T04:24:07.677Z,13.90
2018-04-29T04:26:35.985Z,15.17
2018-04-29T04:29:03.515Z,13.27
2018-04-29T04:31:31.783Z,15.17
2018-04-29T04:34:00.110Z,14.77
2018-04-29T04:36:27.649Z,14.87
2018-04-29T04:38:55.220Z,14.60
2018-04-29T04:41:22.744Z,13.77
2018-04-29T04:43:51.061Z,13.93
2018-04-29T04:46:18.580Z,14.43
2018-04-29T04:48:46.883Z,14.00
2018-04-29T04:51:14.451Z,14.63
2018-04-29T04:53:41.969Z,13.23
2018-04-29T04:56:10.260Z,13.07
2018-04-29T04:58:37.799Z,13.47
2018-04-29T05:01:05.377Z,13.57
2018-04-29T05:03:33.710Z,13.70
2018-04-29T05:06:01.249Z,13.23
2018-04-29T05:08:28.765Z,13.30
2018-04-29T05:10:57.086Z,13.50
2018-04-29T05:13:24.618Z,15.07
2018-04-29T05:15:52.137Z,16.77
2018-04-29T05:18:19.693Z,16.50
2018-04-29T05:20:47.216Z,17.00
2018-04-29T05:23:14.766Z,16.33
2018-04-29T05:25:42.317Z,17.97
2018-04-29T05:28:09.861Z,19.27
2018-04-29T05:30:38.117Z,19.40
2018-04-29T05:33:05.635Z,21.83
2018-04-29T05:35:33.190Z,21.93
2018-04-29T05:38:00.681Z,22.90
2018-04-29T05:40:28.187Z,23.37
2018-04-29T05:42:55.714Z,24.23
2018-04-29T05:45:23.997Z,24.83
2018-04-29T05:47:52.295Z,26.77
2018-04-29T05:50:19.831Z,28.00
2018-04-29T05:52:48.110Z,27.70
2018-04-29T05:55:16.440Z,27.67
2018-04-29T05:57:43.984Z,26.77
2018-04-29T06:00:11.511Z,25.50
2018-04-29T06:02:39.804Z,26.00
2018-04-29T06:05:07.321Z,24.23
2018-04-29T06:07:34.861Z,24.10
2018-04-29T06:10:02.369Z,21.50
2018-04-29T06:12:29.893Z,21.60
2018-04-29T06:14:57.422Z,19.73
2018-04-29T06:17:24.949Z,19.00
2018-04-29T06:19:53.225Z,18.63
2018-04-29T06:22:21.564Z,18.80
2018-04-29T06:24:49.867Z,18.80
2018-04-29T06:27:18.135Z,17.60
2018-04-29T06:29:46.474Z,18.53
2018-04-29T06:32:14.001Z,16.90
2018-04-29T06:34:41.545Z,16.50
2018-04-29T06:37:09.810Z,15.73
2018-04-29T06:39:38.134Z,15.73
2018-04-29T06:42:05.659Z,15.83
2018-04-29T06:44:33.179Z,12.83
2018-04-29T06:47:00.725Z,13.87
2018-04-29T06:49:28.246Z,12.30
2018-04-29T06:51:55.821Z,13.40
2018-04-29T06:54:23.349Z,12.30
2018-04-29T06:56:51.631Z,11.47
2018-04-29T06:59:19.948Z,11.33
2018-04-29T07:01:47.469Z,11.30
2018-04-29T07:04:15.759Z,12.13
2018-04-29T07:06:43.270Z,12.73
2018-04-29T07:09:10.800Z,11.97
2018-04-29T07:11:39.066Z,11.03
2018-04-29T07:14:06.647Z,10.73
2018-04-29T07:16:34.118Z,10.63
2018-04-29T07:19:01.663Z,10.00
2018-04-29T07:21:29.194Z,10.20
2018-04-29T07:23:56.714Z,10.77
2018-04-29T07:26:25.017Z,9.47
2018-04-29T07:28:52.542Z,9.90
2018-04-29T07:31:20.102Z,9.03
2018-04-29T07:33:47.674Z,9.63
2018-04-29T07:36:15.977Z,10.70
2018-04-29T07:38:43.474Z,15.20
2018-04-29T07:41:10.988Z,17.67
2018-04-29T07:43:38.534Z,17.63
2018-04-29T07:46:06.825Z,17.23
2018-04-29T07:48:34.369Z,16.03
2018-04-29T07:51:02.652Z,15.63
2018-04-29T07:53:30.947Z,17.60
2018-04-29T07:55:58.494Z,18.43
2018-04-29T07:58:26.023Z,18.10
2018-04-29T08:00:53.660Z,18.03
2018-04-29T08:03:21.888Z,17.10
2018-04-29T08:05:49.422Z,16.60
2018-04-29T08:08:17.703Z,16.57
2018-04-29T08:10:45.978Z,15.30
2018-04-29T08:13:13.533Z,14.97
2018-04-29T08:15:41.873Z,14.43
2018-04-29T08:18:10.113Z,13.93
2018-04-29T08:20:37.646Z,15.67
2018-04-29T08:23:05.196Z,15.97
2018-04-29T08:25:32.770Z,15.97
2018-04-29T08:28:01.077Z,16.00
2018-04-29T08:30:28.614Z,15.93
2018-04-29T08:32:56.911Z,15.77
2018-04-29T08:35:24.437Z,17.20
2018-04-29T08:37:51.961Z,15.57
2018-04-29T08:40:19.503Z,14.70
2018-04-29T08:42:47.013Z,14.50
2018-04-29T08:45:14.562Z,13.83
2018-04-29T08:47:42.110Z,16.17
2018-04-29T08:50:09.650Z,13.80
2018-04-29T08:52:37.180Z,14.67
2018-04-29T08:55:04.697Z,14.10
2018-04-29T08:57:32.232Z,12.10
2018-04-29T08:59:59.772Z,12.50
2018-04-29T09:02:27.283Z,11.33
2018-04-29T09:04:54.828Z,10.43
2018-04-29T09:07:22.402Z,11.30
2018-04-29T09:09:50.714Z,9.77
2018-04-29T09:12:18.213Z,9.50
2018-04-29T09:14:45.752Z,10.30
2018-04-29T09:17:13.267Z,9.07
2018-04-29T09:19:41.535Z,8.23
2018-04-29T09:22:09.049Z,8.70
2018-04-29T09:24:36.590Z,7.33
2018-04-29T09:27:04.141Z,8.30
2018-04-29T09:29:31.662Z,8.23
2018-04-29T09:32:00.046Z,8.17
2018-04-29T09:34:27.549Z,8.37
2018-04-29T09:36:55.116Z,7.60
2018-04-29T09:39:22.624Z,8.33
2018-04-29T09:41:50.921Z,7.80
2018-04-29T09:44:19.246Z,7.97
2018-04-29T09:46:46.856Z,8.30
2018-04-29T09:49:14.548Z,8.13
2018-04-29T09:51:42.040Z,7.80
2018-04-29T09:54:09.582Z,7.93
2018-04-29T09:56:37.125Z,6.90
2018-04-29T09:59:04.655Z,7.33
2018-04-29T10:01:36.000Z,8.13
2018-04-29T10:04:04.305Z,8.67
2018-04-29T10:06:31.816Z,8.40
2018-04-29T10:08:59.361Z,7.27
2018-04-29T10:11:26.888Z,8.20
2018-04-29T10:13:54.383Z,8.73
2018-04-29T10:16:21.936Z,7.40
2018-04-29T10:18:49.552Z,7.70
2018-04-29T10:21:17.018Z,8.40
2018-04-29T10:23:44.566Z,8.00
2018-04-29T10:26:12.100Z,7.03
2018-04-29T10:28:40.386Z,6.73
2018-04-29T10:31:08.670Z,6.77
2018-04-29T10:33:36.228Z,6.87
2018-04-29T10:36:03.745Z,7.20
2018-04-29T10:38:31.280Z,7.40
2018-04-29T10:40:58.805Z,6.40
2018-04-29T10:43:26.321Z,6.33
2018-04-29T10:45:53.827Z,6.57
2018-04-29T10:48:21.378Z,6.30
2018-04-29T10:50:49.664Z,6.17
2018-04-29T10:53:17.205Z,6.23
2018-04-29T10:55:45.477Z,6.30
2018-04-29T10:58:13.758Z,5.80
2018-04-29T11:00:42.029Z,5.67
2018-04-29T11:03:10.300Z,5.80
2018-04-29T11:05:38.599Z,5.77
2018-04-29T11:08:06.925Z,4.30
2018-04-29T11:10:34.454Z,5.47
2018-04-29T11:13:02.006Z,4.80
2018-04-29T11:15:29.514Z,4.97
2018-04-29T11:17:57.847Z,4.60
2018-04-29T11:20:25.369Z,4.53
2018-04-29T11:22:53.654Z,4.30
2018-04-29T11:25:21.961Z,4.20
2018-04-29T11:27:49.497Z,5.03
2018-04-29T11:30:17.019Z,4.30
2018-04-29T11:32:44.553Z,4.70
2018-04-29T11:35:12.083Z,4.60
2018-04-29T11:37:39.590Z,4.10
2018-04-29T11:40:07.145Z,4.33
2018-04-29T11:42:34.671Z,4.00
2018-04-29T11:45:02.193Z,4.40
2018-04-29T11:47:30.480Z,4.30
2018-04-29T11:49:58.750Z,3.60
2018-04-29T11:52:27.082Z,3.30
2018-04-29T11:54:54.601Z,3.63
2018-04-29T11:57:22.889Z,3.03
2018-04-29T11:59:50.395Z,3.30
2018-04-29T12:02:17.922Z,2.93
2018-04-29T12:04:45.475Z,3.23
2018-04-29T12:07:12.992Z,4.03
2018-04-29T12:09:41.284Z,3.50
2018-04-29T12:12:09.550Z,4.17
2018-04-29T12:14:37.106Z,3.37
2018-04-29T12:17:05.385Z,3.13
2018-04-29T12:19:33.646Z,3.80
2018-04-29T12:22:01.176Z,3.27
2018-04-29T12:24:28.757Z,3.40
2018-04-29T12:26:56.252Z,3.43
2018-04-29T12:29:24.583Z,2.93
2018-04-29T12:31:52.082Z,3.00
2018-04-29T12:34:20.370Z,3.10
2018-04-29T12:36:47.950Z,3.37
2018-04-29T12:39:15.466Z,3.80
2018-04-29T12:41:42.971Z,3.10
2018-04-29T12:44:10.485Z,3.33
2018-04-29T12:46:38.882Z,3.10
2018-04-29T12:49:06.313Z,3.00
2018-04-29T12:51:33.827Z,2.60
2018-04-29T12:54:01.376Z,3.30
2018-04-29T12:56:28.914Z,3.00
2018-04-29T12:58:56.424Z,2.60
2018-04-29T13:01:23.940Z,3.00
2018-04-29T13:03:51.502Z,3.07
2018-04-29T13:06:19.019Z,3.77
2018-04-29T13:08:46.573Z,2.90
2018-04-29T13:11:14.098Z,3.27
2018-04-29T13:13:41.663Z,3.20
2018-04-29T13:16:09.192Z,3.00
2018-04-29T13:18:36.723Z,3.23
2018-04-29T13:21:05.028Z,3.60
2018-04-29T13:23:32.576Z,3.40
2018-04-29T13:26:00.829Z,3.50
2018-04-29T13:28:28.371Z,3.47
2018-04-29T13:30:55.905Z,3.00
2018-04-29T13:33:23.408Z,3.33
2018-04-29T13:35:50.937Z,3.53
2018-04-29T13:38:18.450Z,3.50
2018-04-29T13:40:45.962Z,3.60
2018-04-29T13:43:13.459Z,3.30
2018-04-29T13:45:40.996Z,3.10
2018-04-29T13:48:08.518Z,3.50
2018-04-29T13:50:36.070Z,3.03
2018-04-29T13:53:03.610Z,3.10
2018-04-29T13:55:31.155Z,3.17
2018-04-29T13:57:58.692Z,3.40
2018-04-29T14:00:26.226Z,3.47
2018-04-29T14:02:53.773Z,3.20
2018-04-29T14:05:21.277Z,3.20
2018-04-29T14:07:49.568Z,3.57
2018-04-29T14:10:17.152Z,2.83
2018-04-29T14:12:45.425Z,3.63
2018-04-29T14:15:12.944Z,3.50
2018-04-29T14:17:40.722Z,3.63
2018-04-29T14:20:09.000Z,3.20
2018-04-29T14:22:36.662Z,3.10
2018-04-29T14:25:05.024Z,3.73
2018-04-29T14:27:33.318Z,3.37
2018-04-29T14:30:00.846Z,3.67
2018-04-29T14:32:28.379Z,3.37
2018-04-29T14:34:56.083Z,3.40
2018-04-29T14:37:24.407Z,3.60
2018-04-29T14:39:52.090Z,3.47
2018-04-29T14:42:19.606Z,3.67
2018-04-29T14:44:47.141Z,3.40
2018-04-29T14:47:15.469Z,4.10
2018-04-29T14:49:42.998Z,4.00
2018-04-29T14:52:10.554Z,3.43
2018-04-29T14:54:38.044Z,4.10
2018-04-29T14:57:05.556Z,5.13
2018-04-29T14:59:33.854Z,3.40
2018-04-29T15:02:01.381Z,3.70
2018-04-29T15:04:28.918Z,3.00
2018-04-29T15:07:08.796Z,3.80
2018-04-29T15:09:36.886Z,3.43
2018-04-29T15:12:04.406Z,3.70
2018-04-29T15:14:32.013Z,4.00
2018-04-29T15:16:59.530Z,3.63
2018-04-29T15:19:39.009Z,4.00
2018-04-29T15:22:06.445Z,3.90
2018-04-29T15:24:34.734Z,4.03
2018-04-29T15:27:03.006Z,4.10
2018-04-29T15:29:31.294Z,3.60
2018-04-29T15:31:58.957Z,3.50
2018-04-29T15:34:26.497Z,3.90
2018-04-29T15:36:54.824Z,3.73
2018-04-29T15:39:22.317Z,3.30
2018-04-29T15:41:49.846Z,4.03
2018-04-29T15:44:17.357Z,3.47
2018-04-29T15:46:45.649Z,3.80
2018-04-29T15:49:13.164Z,3.77
2018-04-29T15:51:41.501Z,3.80
2018-04-29T15:54:09.000Z,4.30
2018-04-29T15:56:36.521Z,4.17
2018-04-29T15:59:04.042Z,4.23
2018-04-29T16:01:31.611Z,3.90
2018-04-29T16:03:59.911Z,4.53
2018-04-29T16:06:27.444Z,4.10
2018-04-29T16:08:54.994Z,3.87
2018-04-29T16:11:23.361Z,4.13
2018-04-29T16:13:50.858Z,4.23
2018-04-29T16:16:18.382Z,3.50
2018-04-29T16:18:45.874Z,3.80
2018-04-29T16:21:13.413Z,3.63
2018-04-29T16:23:40.929Z,4.10
2018-04-29T16:26:08.424Z,3.90
2018-04-29T16:28:36.730Z,3.90
2018-04-29T16:31:04.271Z,4.80
2018-04-29T16:33:31.770Z,4.50
2018-04-29T16:35:59.277Z,4.03
2018-04-29T16:38:27.551Z,4.60
2018-04-29T16:40:55.833Z,3.73
2018-04-29T16:43:24.154Z,3.90
2018-04-29T16:45:51.686Z,3.90
2018-04-29T16:48:19.229Z,3.60
2018-04-29T16:50:47.502Z,4.30
2018-04-29T16:53:15.037Z,4.30
2018-04-29T16:55:42.668Z,3.50
2018-04-29T16:58:10.235Z,3.93
2018-04-29T17:00:37.919Z,4.20
2018-04-29T17:03:05.477Z,4.50
2018-04-29T17:05:33.002Z,4.00
2018-04-29T17:08:00.547Z,4.33
2018-04-29T17:10:28.166Z,5.03
2018-04-29T17:12:56.498Z,4.30
2018-04-29T17:15:24.022Z,4.60
2018-04-29T17:17:51.556Z,4.90
2018-04-29T17:20:19.148Z,4.80
2018-04-29T17:22:46.692Z,4.60
2018-04-29T17:25:14.251Z,5.23
2018-04-29T17:27:41.781Z,4.70
2018-04-29T17:30:09.429Z,4.93
2018-04-29T17:32:37.030Z,4.20
2018-04-29T17:35:05.356Z,4.60
2018-04-29T17:37:32.888Z,5.20
2018-04-29T17:40:00.491Z,4.97
2018-04-29T17:42:28.078Z,4.90
2018-04-29T17:44:55.609Z,4.97
2018-04-29T17:47:23.783Z,5.50
2018-04-29T17:49:51.522Z,5.50
2018-04-29T17:52:19.093Z,5.73
2018-04-29T17:54:46.629Z,5.33
2018-04-29T17:57:14.179Z,5.33
2018-04-29T17:59:42.613Z,5.40
2018-04-29T18:02:10.176Z,5.60
2018-04-29T18:04:38.472Z,5.53
2018-04-29T18:07:06.761Z,6.07
2018-04-29T18:09:35.067Z,5.73
2018-04-29T18:12:02.687Z,5.13
2018-04-29T18:14:31.106Z,5.60
2018-04-29T18:16:58.654Z,5.73
2018-04-29T18:19:26.690Z,5.23
2018-04-29T18:21:54.325Z,5.80
2018-04-29T18:24:21.841Z,5.97
2018-04-29T18:26:50.153Z,6.53
2018-04-29T18:29:17.739Z,5.93
2018-04-29T18:31:45.283Z,6.27
2018-04-29T18:34:13.337Z,6.83
2018-04-29T18:36:41.184Z,6.30
2018-04-29T18:39:10.034Z,5.87
2018-04-29T18:41:37.664Z,6.10
2018-04-29T18:44:05.986Z,6.30
2018-04-29T18:46:34.320Z,6.33
2018-04-29T18:49:02.353Z,5.47
2018-04-29T18:51:31.260Z,5.43
2018-04-29T18:53:59.070Z,5.80
2018-04-29T18:56:27.487Z,5.40
2018-04-29T18:58:55.063Z,6.57
2018-04-29T19:01:23.141Z,6.83
2018-04-29T19:10:37.437Z,8.40
2018-04-29T19:13:05.105Z,7.90
2018-04-29T19:15:32.682Z,7.20
2018-04-29T19:18:01.444Z,7.80
2018-04-29T19:20:29.238Z,7.33
2018-04-29T19:22:57.592Z,7.30
2018-04-29T19:25:25.185Z,7.83
2018-04-29T19:27:52.966Z,6.77
2018-04-29T19:30:20.480Z,7.17
2018-04-29T19:32:48.020Z,7.57
2018-04-29T19:35:15.562Z,7.00
2018-04-29T19:37:43.847Z,6.80
2018-04-29T19:40:11.427Z,6.57
2018-04-29T19:42:38.989Z,6.50
2018-04-29T19:45:06.661Z,6.60
2018-04-29T19:47:34.954Z,6.07
2018-04-29T19:50:02.483Z,6.43
2018-04-29T19:52:30.039Z,6.03
2018-04-29T19:54:57.579Z,6.47
2018-04-29T19:57:25.847Z,6.80
2018-04-29T19:59:54.180Z,7.47
2018-04-29T20:02:21.701Z,8.67
2018-04-29T20:04:49.277Z,8.83
2018-04-29T20:07:16.920Z,8.63
2018-04-29T20:09:44.454Z,7.80
2018-04-29T20:12:11.987Z,7.80
2018-04-29T20:14:39.633Z,8.03
2018-04-29T20:17:07.311Z,7.17
2018-04-29T20:19:34.841Z,8.20
2018-04-29T20:22:02.373Z,8.30
2018-04-29T20:24:30.702Z,8.43
2018-04-29T20:26:58.866Z,8.17
2018-04-29T20:29:26.802Z,8.20
2018-04-29T20:31:54.731Z,8.27
2018-04-29T20:34:23.508Z,7.50
2018-04-29T20:36:51.372Z,7.43
2018-04-29T20:39:19.244Z,7.90
2018-04-29T20:41:46.891Z,8.23
2018-04-29T20:44:15.077Z,9.83
2018-04-29T20:46:43.955Z,9.03
2018-04-29T20:49:12.069Z,6.43
2018-04-29T20:51:40.783Z,6.80
2018-04-29T20:54:08.768Z,7.43
2018-04-29T20:56:36.278Z,8.27
2018-04-29T20:59:03.956Z,6.40
2018-04-29T21:01:31.987Z,5.60
2018-04-29T21:03:59.620Z,5.70
2018-04-29T21:06:27.192Z,5.73
2018-04-29T21:08:54.958Z,5.67
2018-04-29T21:11:23.956Z,6.60
2018-04-29T21:13:52.225Z,5.70
2018-04-29T21:16:19.949Z,6.20
2018-04-29T21:18:48.587Z,6.50
2018-04-29T21:21:16.270Z,6.40
2018-04-29T21:23:45.242Z,6.30
2018-04-29T21:26:13.247Z,6.37
2018-04-29T21:28:41.732Z,7.40
2018-04-29T21:31:09.328Z,6.40
2018-04-29T21:33:37.222Z,6.77
2018-04-29T21:36:04.859Z,6.80
2018-04-29T21:38:32.425Z,6.10
2018-04-29T21:41:00.048Z,6.43
2018-04-29T21:43:28.328Z,6.17
2018-04-29T21:45:56.615Z,7.20
2018-04-29T21:48:24.141Z,6.70
2018-04-29T21:50:51.643Z,6.03
2018-04-29T21:53:19.193Z,6.57
2018-04-29T21:55:46.721Z,6.83
2018-04-29T21:58:14.237Z,6.70
2018-04-29T22:00:41.798Z,6.37
2018-04-29T22:03:09.334Z,6.90
2018-04-29T22:05:36.826Z,7.30
2018-04-29T22:08:04.347Z,6.33
2018-04-29T22:10:31.901Z,6.73
2018-04-29T22:13:02.339Z,8.17
2018-04-29T22:15:29.849Z,8.53
2018-04-29T22:17:57.383Z,8.80
2018-04-29T22:20:24.880Z,8.30
2018-04-29T22:22:53.172Z,8.20
2018-04-29T22:25:21.439Z,7.27
2018-04-29T22:27:49.710Z,6.73
2018-04-29T22:30:18.026Z,6.63
2018-04-29T22:32:45.545Z,6.90
2018-04-29T22:35:13.095Z,6.67
2018-04-29T22:37:40.655Z,5.97
2018-04-29T22:40:08.217Z,5.77
2018-04-29T22:42:36.506Z,5.10
2018-04-29T22:45:04.793Z,4.70
2018-04-29T22:47:33.050Z,4.50
2018-04-29T22:50:01.384Z,4.77
2018-04-29T22:52:28.910Z,4.60
2018-04-29T22:54:56.438Z,5.33
2018-04-29T22:57:23.954Z,4.90
2018-04-29T22:59:51.450Z,4.33
2018-04-29T23:02:18.962Z,4.60
2018-04-29T23:04:46.495Z,4.63
2018-04-29T23:07:14.802Z,4.43
2018-04-29T23:09:42.298Z,3.60
2018-04-29T23:12:09.817Z,3.00
2018-04-29T23:14:38.168Z,2.60
2018-04-29T23:17:06.434Z,2.47
2018-04-29T23:19:34.698Z,1.60
2018-04-29T23:22:02.955Z,1.50
2018-04-29T23:24:30.458Z,1.57
2018-04-29T23:26:57.961Z,1.47
2018-04-29T23:29:25.465Z,1.60
2018-04-29T23:31:53.772Z,1.40
2018-04-29T23:34:21.324Z,2.00
2018-04-29T23:36:48.858Z,1.67
2018-04-29T23:39:17.165Z,1.60
2018-04-29T23:41:44.691Z,1.37
2018-04-29T23:44:12.948Z,1.70
2018-04-29T23:46:41.234Z,1.57
2018-04-29T23:49:08.734Z,1.60
2018-04-29T23:51:36.234Z,1.33
2018-04-29T23:54:03.746Z,1.80
2018-04-29T23:56:31.294Z,1.70
2018-04-29T23:58:58.811Z,1.53
